Weather reports worldwide

Advertisment
St.Catherine`s Point, United Kingdom (3866): temperature & dewpoint: 15.01.2020 06:00:00 - 21.01.2020 06:00:00 (GMT)St.Catherine`s Point, United Kingdom (3866): wind speed & gusts: 15.01.2020 06:00:00 - 21.01.2020 06:00:00 (GMT)St.Catherine`s Point, United Kingdom (3866): wind direction: 15.01.2020 06:00:00 - 21.01.2020 06:00:00 (GMT)St.Catherine`s Point, United Kingdom (3866): reduced air pressure: 15.01.2020 06:00:00 - 21.01.2020 06:00:00 (GMT)St.Catherine`s Point, United Kingdom (3866): precipitation: 15.01.2020 06:00:00 - 21.01.2020 06:00:00 (GMT)
Date & Time tt [°C] td [°C] ff [km/h] ff [kn] fx [km/h] fx [kn] dd ppp [hPa] rr [mm]
21.01.2020 06:00:00 4,5 2,7 15 8 - - NE 1041,8 0,0
21.01.2020 05:00:00 3,6 1,8 13 7 - - NE 1041,9 0,0
21.01.2020 04:00:00 3,1 0,6 16 9 - - NNE 1042,2 0,0
21.01.2020 03:00:00 4,4 0,9 18 10 - - NNE 1042,6 0,0
21.01.2020 02:00:00 4,3 1,3 15 8 - - NNE 1043,3 0,0
21.01.2020 01:00:00 4,6 2,0 22 12 - - NNE 1043,7 0,0
21.01.2020 00:00:00 5,1 2,0 21 11 - - NNE 1044,4 0,0
20.01.2020 23:00:00 5,0 1,1 16 9 - - NNE 1044,7 0,0
20.01.2020 22:00:00 4,9 -0,5 13 7 - - N 1044,9 0,0
20.01.2020 21:00:00 3,0 -1,5 5 3 - - NE 1045,4 0,0
20.01.2020 20:00:00 5,7 -0,8 9 5 - - NNW 1045,5 0,0
20.01.2020 19:00:00 6,0 -2,3 11 6 - - N 1045,8 0,0
20.01.2020 18:00:00 4,6 -5,5 8 4 - - N 1046,3 0,0
20.01.2020 17:00:00 5,7 -5,9 8 4 - - NNW 1046,1 0,0
20.01.2020 16:00:00 5,6 -1,2 13 7 - - NW 1046,5 0,0
20.01.2020 15:00:00 7,2 -2,1 9 5 - - WNW 1046,9 0,0
20.01.2020 14:00:00 7,8 -1,0 8 4 - - W 1047,5 0,0
20.01.2020 13:00:00 8,6 -1,3 5 3 - - SW 1048,0 0,0
20.01.2020 12:00:00 9,5 0,1 5 3 - - S 1048,5 0,0
20.01.2020 11:00:00 8,6 -3,6 4 2 - - S 1048,8 0,0
20.01.2020 10:00:00 6,4 -3,8 11 6 - - N 1048,9 0,0
20.01.2020 09:00:00 5,1 -2,7 15 8 - - N 1049,0 0,0
20.01.2020 08:00:00 4,2 -3,2 13 7 - - N 1048,6 0,0
20.01.2020 07:00:00 4,6 -3,5 8 4 - - N 1048,6 0,0
20.01.2020 06:00:00 4,1 -3,5 5 3 - - NNE 1048,5 0,0
20.01.2020 05:00:00 4,1 -2,3 15 8 - - NNE 1048,2 0,0
20.01.2020 04:00:00 4,3 -1,7 13 7 - - NNE 1048,3 0,0
20.01.2020 03:00:00 4,9 -1,3 13 7 - - NNE 1048,4 0,0
20.01.2020 02:00:00 4,9 -0,7 13 7 - - ENE 1048,5 0,0
20.01.2020 01:00:00 4,6 -1,5 13 7 - - ENE 1048,9 0,0
20.01.2020 00:00:00 4,6 -2,1 13 7 - - NE 1049,1 0,0
19.01.2020 23:00:00 4,5 -1,4 21 11 - - NNE 1049,0 0,0
19.01.2020 22:00:00 3,9 0,1 18 10 - - NNE 1048,9 0,0
19.01.2020 21:00:00 4,3 -0,3 18 10 - - NNE 1048,5 0,0
19.01.2020 20:00:00 4,3 -0,1 11 6 - - NNE 1048,4 0,0
19.01.2020 19:00:00 4,5 0,4 9 5 - - NE 1047,9 0,0
19.01.2020 18:00:00 4,5 0,3 8 4 - - NNE 1047,4 0,0
19.01.2020 17:00:00 5,4 0,1 4 2 - - WNW 1046,9 0,0
19.01.2020 16:00:00 6,6 0,4 9 5 - - NNW 1046,4 0,0
19.01.2020 15:00:00 7,4 1,4 5 3 - - N 1045,8 0,0
19.01.2020 14:00:00 7,1 1,1 5 3 - - NNE 1045,3 0,0
19.01.2020 13:00:00 6,5 0,8 13 7 - - NNE 1045,2 0,0
19.01.2020 12:00:00 5,6 1,1 18 10 - - NNE 1045,3 0,0
19.01.2020 11:00:00 4,4 0,6 22 12 - - NNE 1044,8 0,0
19.01.2020 10:00:00 3,2 0,6 24 13 - - NNE 1044,2 0,0
19.01.2020 09:00:00 2,6 0,5 18 10 - - NNE 1043,6 0,0
19.01.2020 08:00:00 2,0 0,4 18 10 - - NNE 1042,3 0,0
19.01.2020 07:00:00 2,1 0,5 15 8 - - N 1041,5 0,0
19.01.2020 06:00:00 2,0 0,3 5 3 - - N 1040,6 0,0
19.01.2020 05:00:00 2,4 0,6 5 3 - - W 1040,0 0,0
19.01.2020 04:00:00 2,4 0,3 8 4 - - WNW 1039,6 0,0
19.01.2020 03:00:00 2,8 -0,2 4 2 - - WNW 1038,9 0,0
19.01.2020 02:00:00 3,2 0,0 4 2 - - NNE 1038,1 0,0
19.01.2020 01:00:00 4,1 -0,1 5 3 - - NNE 1037,1 0,0
19.01.2020 00:00:00 4,2 -0,2 4 2 - - WNW 1036,4 0,0
18.01.2020 23:00:00 4,4 0,0 9 5 - - NW 1035,5 0,0
18.01.2020 22:00:00 4,5 0,3 8 4 - - WNW 1034,8 0,0
18.01.2020 21:00:00 4,9 0,6 4 2 - - NW 1034,3 0,0
18.01.2020 20:00:00 4,6 0,7 9 5 - - NE 1033,4 0,0
18.01.2020 19:00:00 4,9 0,5 9 5 - - NE 1032,4 0,0
18.01.2020 18:00:00 4,8 0,1 8 4 - - NE 1031,7 0,0
18.01.2020 17:00:00 5,1 0,0 8 4 - - NNE 1030,7 0,0
18.01.2020 16:00:00 5,9 0,8 8 4 - - N 1030,1 0,0
18.01.2020 15:00:00 6,8 1,1 2 1 - - SW 1029,5 0,0
18.01.2020 14:00:00 7,2 0,9 8 4 - - NW 1029,0 0,0
18.01.2020 13:00:00 7,6 1,2 8 4 - - NW 1028,6 0,0
18.01.2020 12:00:00 7,3 1,8 5 3 - - E 1028,4 0,0
18.01.2020 11:00:00 7,5 1,5 8 4 - - W 1028,0 0,0
18.01.2020 10:00:00 6,5 -0,4 9 5 - - WNW 1027,4 0,0
18.01.2020 09:00:00 5,5 -0,6 11 6 - - NW 1026,7 0,0
18.01.2020 08:00:00 5,4 0,4 18 10 - - NNW 1026,4 0,0
18.01.2020 07:00:00 5,3 0,6 21 11 - - NNW 1025,9 0,0
18.01.2020 06:00:00 4,9 0,8 15 8 - - NNW 1025,2 0,0
18.01.2020 05:00:00 4,3 1,2 16 9 - - NW 1024,3 0,0
18.01.2020 04:00:00 4,5 1,8 16 9 - - NW 1024,0 0,0
18.01.2020 03:00:00 5,5 2,3 18 10 - - NW 1023,6 0,0
18.01.2020 02:00:00 6,9 3,2 26 14 - - W 1023,0 0,0
18.01.2020 01:00:00 6,7 3,0 29 16 - - W 1022,5 0,0
18.01.2020 00:00:00 6,6 3,1 29 16 - - W 1021,5 0,0
17.01.2020 23:00:00 6,5 2,6 34 18 50 27 W 1020,7 0,0
17.01.2020 22:00:00 6,7 3,3 35 19 48 26 W 1020,0 0,0
17.01.2020 21:00:00 7,1 2,9 34 18 50 27 W 1019,0 0,0
17.01.2020 20:00:00 7,9 3,7 29 16 50 27 W 1018,7 0,0
17.01.2020 19:00:00 7,9 2,9 35 19 52 28 W 1018,4 0,0
17.01.2020 18:00:00 7,7 2,4 39 21 50 27 W 1018,1 0,0
17.01.2020 17:00:00 8,1 3,2 41 22 50 27 W 1017,5 0,0
17.01.2020 16:00:00 7,7 3,7 31 17 48 26 W 1017,0 0,0
17.01.2020 15:00:00 7,7 3,0 35 19 54 29 W 1016,4 0,0
17.01.2020 14:00:00 8,0 3,0 42 23 63 34 W 1015,5 0,0
17.01.2020 13:00:00 8,2 4,2 48 26 65 35 W 1014,9 0,0
17.01.2020 12:00:00 8,1 3,5 46 25 65 35 W 1014,2 0,0
17.01.2020 11:00:00 7,9 4,0 46 25 68 37 W 1013,5 0,0
17.01.2020 10:00:00 8,3 4,2 50 27 76 41 W 1011,7 0,2
17.01.2020 09:00:00 8,9 6,1 48 26 67 36 W 1010,3 0,0
17.01.2020 08:00:00 9,6 5,9 44 24 59 32 WSW 1009,7 0,0
17.01.2020 07:00:00 10,1 6,1 42 23 57 31 WSW 1008,9 0,0
17.01.2020 06:00:00 10,0 7,2 31 17 - - WSW 1009,0 0,0
17.01.2020 05:00:00 9,2 7,7 26 14 57 31 WSW 1009,0 1,2
17.01.2020 04:00:00 10,2 9,0 16 9 - - SSW 1008,9 0,0
17.01.2020 03:00:00 10,2 9,0 15 8 - - SW 1009,5 0,0
17.01.2020 02:00:00 10,2 8,9 21 11 - - SW 1009,5 0,0
17.01.2020 01:00:00 10,3 9,1 24 13 - - SW 1009,8 0,0
17.01.2020 00:00:00 10,2 9,3 18 10 - - SW 1009,8 0,0
16.01.2020 23:00:00 10,3 9,5 16 9 - - SW 1010,2 0,2
16.01.2020 22:00:00 10,3 9,4 22 12 - - SW 1010,4 0,2
16.01.2020 21:00:00 10,7 9,4 29 16 46 25 SW 1010,5 0,8
16.01.2020 20:00:00 10,8 9,2 24 13 50 27 SSW 1010,1 1,2
16.01.2020 19:00:00 10,9 8,8 18 10 - - S 1010,1 1,0
16.01.2020 18:00:00 11,6 8,3 21 11 - - S 1010,1 0,0
16.01.2020 17:00:00 11,5 7,9 21 11 - - SSE 1010,2 0,0
16.01.2020 16:00:00 11,5 7,7 21 11 - - SSE 1010,5 0,0
16.01.2020 15:00:00 11,2 7,6 21 11 - - SSE 1010,9 0,0
16.01.2020 14:00:00 10,8 7,4 16 9 - - SSE 1011,8 0,0
16.01.2020 13:00:00 10,5 7,3 18 10 - - SSE 1012,2 0,0
16.01.2020 12:00:00 10,1 7,3 22 12 46 25 SSE 1013,5 0,0
16.01.2020 11:00:00 9,8 7,6 18 10 - - SSE 1014,9 0,0
16.01.2020 10:00:00 9,4 7,5 18 10 - - SSE 1015,5 0,0
16.01.2020 09:00:00 9,0 7,5 18 10 - - SSE 1016,5 0,0
16.01.2020 08:00:00 8,9 7,3 21 11 - - SSE 1016,7 0,0
16.01.2020 07:00:00 9,1 7,1 18 10 - - SSE 1017,4 0,0
16.01.2020 06:00:00 9,1 6,7 21 11 - - SSE 1017,8 0,0
16.01.2020 05:00:00 9,1 6,4 22 12 - - S 1018,7 0,0
16.01.2020 04:00:00 9,3 5,6 18 10 - - SSW 1019,1 0,0
16.01.2020 03:00:00 9,2 6,3 18 10 - - SSW 1019,2 0,0
16.01.2020 02:00:00 9,3 6,4 22 12 - - SW 1019,2 0,0
16.01.2020 01:00:00 9,5 6,7 21 11 - - SW 1019,3 0,0
16.01.2020 00:00:00 9,7 6,8 26 14 - - SW 1018,8 0,0
15.01.2020 23:00:00 9,8 6,9 26 14 - - SW 1018,6 0,0
15.01.2020 22:00:00 9,9 6,1 29 16 - - WSW 1018,2 0,0
15.01.2020 21:00:00 9,8 5,7 29 16 - - WSW 1017,8 0,0
15.01.2020 20:00:00 9,7 6,2 26 14 - - WSW 1017,4 0,0
15.01.2020 19:00:00 9,7 5,2 35 19 46 25 WSW 1016,3 0,0
15.01.2020 18:00:00 8,9 5,8 28 15 - - W 1015,3 0,0
15.01.2020 17:00:00 9,4 4,9 35 19 52 28 W 1014,1 0,0
15.01.2020 16:00:00 9,6 4,6 37 20 52 28 W 1012,6 0,0
15.01.2020 15:00:00 9,9 5,6 37 20 50 27 W 1011,4 0,0
15.01.2020 14:00:00 9,8 7,0 31 17 52 28 WSW 1010,2 0,0
15.01.2020 13:00:00 8,4 6,4 39 21 52 28 WSW 1009,2 0,2
15.01.2020 12:00:00 8,9 6,0 26 14 - - WSW 1008,1 0,0
15.01.2020 11:00:00 7,8 6,0 15 8 - - SW 1006,8 0,4
15.01.2020 10:00:00 6,5 5,5 2 1 - - W 1005,5 0,6
15.01.2020 09:00:00 5,9 4,6 9 5 - - WNW 1004,5 2,6
15.01.2020 08:00:00 6,8 5,1 16 9 - - NW 1003,5 2,0
15.01.2020 07:00:00 7,5 6,6 13 7 - - WNW 1002,3 1,8
15.01.2020 06:00:00 8,2 7,6 16 9 - - W 1001,1 1,6

tt = temperature
td = dewpoint
ff = wind speed
fx = gusts
dd = wind direction
ppp = reduced air pressure
rr = precipitation

Next stations